Terminal Aerodrome Forecast
Issued by NWS Albany, NY

Home | Current Version | Previous Version | Text Only | Print | Product List | Glossary On
Versions: 1 2 3 4 5 6 7 8 9 10 11 12 13 14 15 16 17
797
FTUS41 KALY 221138
TAFGFL
TAF
KGFL 221138Z 2212/2312 VRB04KT P6SM VCSH SCT040 OVC090
     FM221400 34005KT 6SM -SHRA BR SCT020 OVC040
      TEMPO 2214/2217 2SM -SHRA BR SCT008 OVC020
     FM221700 32009KT 5SM -SHRA BR BKN020 OVC035
     FM222000 33013G22KT P6SM BKN035
     FM230100 32008KT P6SM SCT040
     FM230500 33004KT P6SM SKC=

USA.gov is the U.S. government's official web portal to all federal, state and local government web resources and services.